Dubuisson, Canada
Current Conditions -  °F | °C
As of 4:00 AM on Saturday 22 Nov 2014 (Local Time) from CYVO Reporting Station
Light Snow Light Snow  
Wind Chill: 11°   Ceiling: 1600
Heat Index: 23°   Visibility: 9mi
Dew Point: 21°   Wind: 13mph
Humidity: 93%   Direction: 200°SSW
Pressure: 29.78"   Gusts: 25mph
Location:  48.1°N, 77.9°W
Report Text: CYVO 220900Z AUTO 20011G22KT 9SM -SN OVC016 M05/M06 A2978 RMK PRESFR SLP113
Loading
Personal Weather Stations






























Interactive Weather Map New forecast layout! Learn more

10-Day Weather Forecast

Advertisements
Track Severe Weather on mobile